createdAt,value
2023-02-25T00:01:08.755Z,7.33
2023-02-25T00:03:36.479Z,8.80
2023-02-25T00:06:04.074Z,8.49
2023-02-25T00:08:31.035Z,7.80
2023-02-25T00:11:05.834Z,8.26
2023-02-25T00:13:32.885Z,8.50
2023-02-25T00:15:59.631Z,8.46
2023-02-25T00:18:31.255Z,8.40
2023-02-25T00:20:58.609Z,8.43
2023-02-25T00:23:25.503Z,8.24
2023-02-25T00:26:00.009Z,8.34
2023-02-25T00:28:26.903Z,8.62
2023-02-25T00:30:53.959Z,8.56
2023-02-25T00:33:20.977Z,8.22
2023-02-25T00:35:50.132Z,8.39
2023-02-25T00:38:18.389Z,8.43
2023-02-25T00:40:45.166Z,8.36
2023-02-25T00:43:12.148Z,8.25
2023-02-25T00:45:40.698Z,8.31
2023-02-25T00:48:07.973Z,7.89
2023-02-25T00:50:35.376Z,8.04
2023-02-25T00:53:02.486Z,8.19
2023-02-25T00:55:33.764Z,8.13
2023-02-25T00:58:01.511Z,7.89
2023-02-25T01:00:29.364Z,7.79
2023-02-25T01:02:58.185Z,7.75
2023-02-25T01:05:25.052Z,8.07
2023-02-25T01:07:52.285Z,7.70
2023-02-25T01:10:19.210Z,8.00
2023-02-25T01:12:46.090Z,7.75
2023-02-25T01:15:13.609Z,8.03
2023-02-25T01:17:40.445Z,7.93
2023-02-25T01:20:11.601Z,7.63
2023-02-25T01:22:41.998Z,7.16
2023-02-25T01:25:13.541Z,7.87
2023-02-25T01:27:40.338Z,7.83
2023-02-25T01:30:07.846Z,7.78
2023-02-25T01:32:34.681Z,7.65
2023-02-25T01:35:01.510Z,7.81
2023-02-25T01:37:28.512Z,6.98
2023-02-25T01:39:55.527Z,7.79
2023-02-25T01:42:22.579Z,7.76
2023-02-25T01:45:17.953Z,7.70
2023-02-25T01:48:12.644Z,7.66
2023-02-25T01:50:43.335Z,7.40
2023-02-25T01:53:10.312Z,7.59
2023-02-25T01:55:38.056Z,7.20
2023-02-25T01:58:04.942Z,7.12
2023-02-25T02:00:32.097Z,7.19
2023-02-25T02:02:59.007Z,7.06
2023-02-25T02:05:28.362Z,6.75
2023-02-25T02:07:55.115Z,7.26
2023-02-25T02:10:21.833Z,6.99
2023-02-25T02:12:48.764Z,6.50
2023-02-25T02:15:15.690Z,7.18
2023-02-25T02:17:57.213Z,7.04
2023-02-25T02:20:31.416Z,7.08
2023-02-25T02:23:08.835Z,7.27
2023-02-25T02:25:54.366Z,7.26
2023-02-25T02:28:32.834Z,7.28
2023-02-25T02:31:27.086Z,7.25
2023-02-25T02:34:06.470Z,7.17
2023-02-25T02:36:39.400Z,7.13
2023-02-25T02:39:24.755Z,7.09
2023-02-25T02:42:38.631Z,7.07
2023-02-25T02:45:29.917Z,6.94
2023-02-25T02:48:02.486Z,7.10
2023-02-25T02:50:40.925Z,7.14
2023-02-25T02:53:11.621Z,6.82
2023-02-25T02:55:51.261Z,6.72
2023-02-25T02:58:27.710Z,6.99
2023-02-25T03:00:59.652Z,6.81
2023-02-25T03:03:41.893Z,7.19
2023-02-25T03:06:12.575Z,7.19
2023-02-25T03:08:45.079Z,7.18
2023-02-25T03:11:12.475Z,7.19
2023-02-25T03:13:39.477Z,7.15
2023-02-25T03:16:07.820Z,7.02
2023-02-25T03:18:39.170Z,7.00
2023-02-25T03:21:10.732Z,7.15
2023-02-25T03:23:37.482Z,7.27
2023-02-25T03:26:12.120Z,7.31
2023-02-25T03:28:39.048Z,7.22
2023-02-25T03:31:30.910Z,7.12
2023-02-25T03:34:08.767Z,7.20
2023-02-25T03:36:39.970Z,7.43
2023-02-25T03:39:15.670Z,7.47
2023-02-25T03:41:44.917Z,7.45
2023-02-25T03:44:15.316Z,7.56
2023-02-25T03:46:43.626Z,7.63
2023-02-25T03:49:12.270Z,7.63
2023-02-25T03:51:40.227Z,7.40
2023-02-25T03:54:07.623Z,7.62
2023-02-25T03:56:44.420Z,7.43
2023-02-25T03:59:11.319Z,7.27
2023-02-25T04:01:38.272Z,7.63
2023-02-25T04:04:05.262Z,7.40
2023-02-25T04:06:32.283Z,7.30
2023-02-25T04:08:59.128Z,7.56
2023-02-25T04:11:25.935Z,6.72
2023-02-25T04:13:52.812Z,7.38
2023-02-25T04:16:19.668Z,7.36
2023-02-25T04:18:46.492Z,6.86
2023-02-25T04:21:28.389Z,6.95
2023-02-25T04:23:55.173Z,6.99
2023-02-25T04:26:22.273Z,7.05
2023-02-25T04:28:49.359Z,6.94
2023-02-25T04:31:16.201Z,6.79
2023-02-25T04:33:44.251Z,6.87
2023-02-25T04:36:27.597Z,6.86
2023-02-25T04:38:54.490Z,6.78
2023-02-25T04:41:21.733Z,6.63
2023-02-25T04:43:48.524Z,6.72
2023-02-25T04:46:15.394Z,6.63
2023-02-25T04:48:42.279Z,6.58
2023-02-25T04:51:09.651Z,5.46
2023-02-25T04:53:36.514Z,6.61
2023-02-25T04:56:04.936Z,6.40
2023-02-25T04:58:32.511Z,6.61
2023-02-25T05:01:00.821Z,6.61
2023-02-25T05:03:28.700Z,6.61
2023-02-25T05:05:55.716Z,6.57
2023-02-25T05:08:22.877Z,6.62
2023-02-25T05:10:50.039Z,6.57
2023-02-25T05:13:17.011Z,6.52
2023-02-25T05:15:43.931Z,6.54
2023-02-25T05:18:10.872Z,6.64
2023-02-25T05:20:46.673Z,6.34
2023-02-25T05:23:13.851Z,6.40
2023-02-25T05:25:43.322Z,6.42
2023-02-25T05:28:11.080Z,6.69
2023-02-25T05:30:38.315Z,6.58
2023-02-25T05:33:05.961Z,6.50
2023-02-25T05:35:32.990Z,6.65
2023-02-25T05:38:00.126Z,6.73
2023-02-25T05:40:27.095Z,6.48
2023-02-25T05:42:53.942Z,6.70
2023-02-25T05:45:21.023Z,6.04
2023-02-25T05:47:48.069Z,6.72
2023-02-25T05:50:14.862Z,6.61
2023-02-25T05:52:42.409Z,6.48
2023-02-25T05:55:09.900Z,6.62
2023-02-25T05:57:37.000Z,6.30
2023-02-25T06:00:06.294Z,6.72
2023-02-25T06:02:33.676Z,6.98
2023-02-25T06:05:00.414Z,6.81
2023-02-25T06:07:31.036Z,6.91
2023-02-25T06:10:01.034Z,6.74
2023-02-25T06:12:32.393Z,6.79
2023-02-25T06:14:59.491Z,6.64
2023-02-25T06:17:26.362Z,6.62
2023-02-25T06:19:53.540Z,6.86
2023-02-25T06:22:20.927Z,6.16
2023-02-25T06:24:47.819Z,6.78
2023-02-25T06:27:14.875Z,6.43
2023-02-25T06:29:41.848Z,6.61
2023-02-25T06:32:10.548Z,6.60
2023-02-25T06:34:38.248Z,6.91
2023-02-25T06:37:05.006Z,6.63
2023-02-25T06:39:31.914Z,6.46
2023-02-25T06:41:58.811Z,6.60
2023-02-25T06:44:27.238Z,6.97
2023-02-25T06:46:55.809Z,6.91
2023-02-25T06:49:23.306Z,7.01
2023-02-25T06:51:50.169Z,7.22
2023-02-25T06:54:17.623Z,7.19
2023-02-25T06:56:44.526Z,7.06
2023-02-25T06:59:11.252Z,7.34
2023-02-25T07:01:38.068Z,7.35
2023-02-25T07:04:05.277Z,7.23
2023-02-25T07:06:32.197Z,7.18
2023-02-25T07:08:58.992Z,7.18
2023-02-25T07:11:25.854Z,7.59
2023-02-25T07:13:52.577Z,7.46
2023-02-25T07:16:19.605Z,7.43
2023-02-25T07:18:46.998Z,7.55
2023-02-25T07:21:13.938Z,7.82
2023-02-25T07:23:41.163Z,7.76
2023-02-25T07:26:09.260Z,7.94
2023-02-25T07:28:36.178Z,7.97
2023-02-25T07:31:04.194Z,8.02
2023-02-25T07:33:31.153Z,8.06
2023-02-25T07:35:58.029Z,7.91
2023-02-25T07:38:25.020Z,7.74
2023-02-25T07:40:51.877Z,7.80
2023-02-25T07:43:18.714Z,7.79
2023-02-25T07:45:45.703Z,7.97
2023-02-25T07:48:13.001Z,7.92
2023-02-25T07:50:39.816Z,7.72
2023-02-25T07:53:06.622Z,7.72
2023-02-25T07:55:33.646Z,7.48
2023-02-25T07:58:00.430Z,7.45
2023-02-25T08:00:28.005Z,7.28
2023-02-25T08:02:55.355Z,7.31
2023-02-25T08:05:24.368Z,7.28
2023-02-25T08:07:51.333Z,7.06
2023-02-25T08:10:18.422Z,7.00
2023-02-25T08:12:45.206Z,7.21
2023-02-25T08:15:12.066Z,7.20
2023-02-25T08:17:38.975Z,7.16
2023-02-25T08:20:06.396Z,6.84
2023-02-25T08:22:33.168Z,7.16
2023-02-25T08:25:00.007Z,6.89
2023-02-25T08:27:26.900Z,7.08
2023-02-25T08:29:53.835Z,7.05
2023-02-25T08:32:20.762Z,6.35
2023-02-25T08:34:48.913Z,6.62
2023-02-25T08:37:16.107Z,6.76
2023-02-25T08:39:43.199Z,6.97
2023-02-25T08:42:11.908Z,6.88
2023-02-25T08:44:38.732Z,6.84
2023-02-25T08:47:05.625Z,6.87
2023-02-25T08:49:32.407Z,6.67
2023-02-25T08:51:59.246Z,6.55
2023-02-25T08:54:26.142Z,6.46
2023-02-25T08:56:55.609Z,5.94
2023-02-25T08:59:22.558Z,5.72
2023-02-25T09:01:50.561Z,6.18
2023-02-25T09:04:19.285Z,6.17
2023-02-25T09:06:48.773Z,6.30
2023-02-25T09:09:16.554Z,6.03
2023-02-25T09:11:43.728Z,5.67
2023-02-25T09:14:10.761Z,5.85
2023-02-25T09:16:37.737Z,6.10
2023-02-25T09:19:04.661Z,5.66
2023-02-25T09:21:31.469Z,6.09
2023-02-25T09:23:59.829Z,6.21
2023-02-25T09:26:26.680Z,6.36
2023-02-25T09:28:53.564Z,6.28
2023-02-25T09:31:20.758Z,6.55
2023-02-25T09:33:47.708Z,6.61
2023-02-25T09:36:16.258Z,6.57
2023-02-25T09:38:43.978Z,6.72
2023-02-25T09:41:25.110Z,6.76
2023-02-25T09:44:01.313Z,6.66
2023-02-25T09:46:28.550Z,6.75
2023-02-25T09:48:57.742Z,6.78
2023-02-25T09:51:28.279Z,6.90
2023-02-25T09:54:01.917Z,6.93
2023-02-25T09:56:28.783Z,7.01
2023-02-25T09:58:57.843Z,7.07
2023-02-25T10:01:42.270Z,7.21
2023-02-25T10:04:12.065Z,7.31
2023-02-25T10:06:44.369Z,7.23
2023-02-25T10:09:15.156Z,7.54
2023-02-25T10:11:59.211Z,7.62
2023-02-25T10:14:38.554Z,7.54
2023-02-25T10:17:25.646Z,7.52
2023-02-25T10:20:20.266Z,7.60
2023-02-25T10:22:52.049Z,7.61
2023-02-25T10:25:24.304Z,7.40
2023-02-25T10:27:52.599Z,7.45
2023-02-25T10:30:23.370Z,7.71
2023-02-25T10:32:50.248Z,7.69
2023-02-25T10:35:29.110Z,7.40
2023-02-25T10:37:56.120Z,7.59
2023-02-25T10:40:24.614Z,7.87
2023-02-25T10:42:54.522Z,7.50
2023-02-25T10:45:23.820Z,8.01
2023-02-25T10:47:56.202Z,7.99
2023-02-25T10:50:42.829Z,7.68
2023-02-25T10:53:16.706Z,7.99
2023-02-25T10:55:43.467Z,8.00
2023-02-25T10:58:44.667Z,7.98
2023-02-25T11:01:11.421Z,7.95
2023-02-25T11:03:44.906Z,7.73
2023-02-25T11:06:20.304Z,8.01
2023-02-25T11:08:47.994Z,8.14
2023-02-25T11:11:19.728Z,8.24
2023-02-25T11:14:00.156Z,8.13
2023-02-25T11:16:27.010Z,8.29
2023-02-25T11:18:58.724Z,8.50
2023-02-25T11:21:43.850Z,8.19
2023-02-25T11:24:37.742Z,8.67
2023-02-25T11:27:06.515Z,9.36
2023-02-25T11:29:34.658Z,9.56
2023-02-25T11:32:08.450Z,9.52
2023-02-25T11:34:35.329Z,9.79
2023-02-25T11:37:43.319Z,10.00
2023-02-25T11:40:32.367Z,10.06
2023-02-25T11:43:05.190Z,10.09
2023-02-25T11:45:37.967Z,10.05
2023-02-25T11:48:05.977Z,9.73
2023-02-25T11:50:54.080Z,9.81
2023-02-25T11:53:48.479Z,9.88
2023-02-25T11:56:48.824Z,9.97
2023-02-25T11:59:39.987Z,10.18
2023-02-25T12:02:15.910Z,10.38
2023-02-25T12:05:13.719Z,10.71
2023-02-25T12:08:12.386Z,11.22
2023-02-25T12:10:56.020Z,11.66
2023-02-25T12:13:31.527Z,11.91
2023-02-25T12:16:23.201Z,12.00
2023-02-25T12:19:14.503Z,11.99
2023-02-25T12:22:13.007Z,11.35
2023-02-25T12:24:54.550Z,11.93
2023-02-25T12:27:59.122Z,11.93
2023-02-25T12:30:47.906Z,11.90
2023-02-25T12:33:17.502Z,11.89
2023-02-25T12:35:44.410Z,11.80
2023-02-25T12:38:31.784Z,11.69
2023-02-25T12:41:47.991Z,11.56
2023-02-25T12:44:22.507Z,11.24
2023-02-25T12:47:10.914Z,11.36
2023-02-25T12:50:08.922Z,11.31
2023-02-25T12:53:10.946Z,11.31
2023-02-25T12:55:46.766Z,11.30
2023-02-25T12:58:44.597Z,11.29
2023-02-25T13:01:22.558Z,11.27
2023-02-25T13:04:09.459Z,11.12
2023-02-25T13:06:58.160Z,11.28
2023-02-25T13:10:15.919Z,11.29
2023-02-25T13:12:58.447Z,10.96
2023-02-25T13:15:46.844Z,11.35
2023-02-25T13:18:37.911Z,11.39
2023-02-25T13:21:04.555Z,11.40
2023-02-25T13:24:09.434Z,11.40
2023-02-25T13:26:51.583Z,11.40
2023-02-25T13:29:43.766Z,11.42
2023-02-25T13:32:14.603Z,11.35
2023-02-25T13:35:07.334Z,11.34
2023-02-25T13:37:38.114Z,11.45
2023-02-25T13:40:14.045Z,11.47
2023-02-25T13:42:49.916Z,11.46
2023-02-25T13:45:31.633Z,11.46
2023-02-25T13:48:21.621Z,11.48
2023-02-25T13:51:22.220Z,11.50
2023-02-25T13:54:30.344Z,11.33
2023-02-25T13:57:32.408Z,11.45
2023-02-25T14:00:26.595Z,11.42
2023-02-25T14:02:59.247Z,11.41
2023-02-25T14:05:37.893Z,11.38
2023-02-25T14:08:10.766Z,11.35
2023-02-25T14:11:09.492Z,11.18
2023-02-25T14:13:42.944Z,11.13
2023-02-25T14:16:23.867Z,11.29
2023-02-25T14:19:29.482Z,11.10
2023-02-25T14:22:30.655Z,10.97
2023-02-25T14:25:03.082Z,11.20
2023-02-25T14:27:42.888Z,11.19
2023-02-25T14:30:12.599Z,11.19
2023-02-25T14:32:49.404Z,11.17
2023-02-25T14:35:47.018Z,11.17
2023-02-25T14:38:15.853Z,11.13
2023-02-25T14:40:44.194Z,11.17
2023-02-25T14:43:33.345Z,11.18
2023-02-25T14:46:00.085Z,11.17
2023-02-25T14:48:51.812Z,11.17
2023-02-25T14:51:30.745Z,11.18
2023-02-25T14:54:09.846Z,11.19
2023-02-25T14:57:04.852Z,11.17
2023-02-25T14:59:49.353Z,11.10
2023-02-25T15:02:52.442Z,11.03
2023-02-25T15:05:38.054Z,10.88
2023-02-25T15:08:23.717Z,10.74
2023-02-25T15:11:12.020Z,10.62
2023-02-25T15:14:06.379Z,10.52
2023-02-25T15:16:51.871Z,10.39
2023-02-25T15:19:44.751Z,10.32
2023-02-25T15:22:14.742Z,10.28
2023-02-25T15:24:42.550Z,10.10
2023-02-25T15:27:31.499Z,10.26
2023-02-25T15:30:02.757Z,10.24
2023-02-25T15:32:31.209Z,10.22
2023-02-25T15:34:59.166Z,10.19
2023-02-25T15:37:36.619Z,9.91
2023-02-25T15:40:16.428Z,10.16
2023-02-25T15:42:54.337Z,10.16
2023-02-25T15:45:40.839Z,9.96
2023-02-25T15:48:07.615Z,10.14
2023-02-25T15:50:43.395Z,10.15
2023-02-25T15:53:21.296Z,10.13
2023-02-25T15:56:03.762Z,10.13
2023-02-25T15:58:30.653Z,10.10
2023-02-25T16:01:06.180Z,10.13
2023-02-25T16:03:35.963Z,10.15
2023-02-25T16:06:22.049Z,9.78
2023-02-25T16:09:00.925Z,10.22
2023-02-25T16:11:42.577Z,10.24
2023-02-25T16:14:17.956Z,10.32
2023-02-25T16:16:48.590Z,10.40
2023-02-25T16:19:17.426Z,10.51
2023-02-25T16:21:49.913Z,10.58
2023-02-25T16:24:17.069Z,10.53
2023-02-25T16:26:46.789Z,10.66
2023-02-25T16:29:19.764Z,10.66
2023-02-25T16:31:56.203Z,10.67
2023-02-25T16:34:30.246Z,10.44
2023-02-25T16:37:13.788Z,10.62
2023-02-25T16:39:40.641Z,10.59
2023-02-25T16:42:14.692Z,10.56
2023-02-25T16:44:42.547Z,10.17
2023-02-25T16:47:33.143Z,9.92
2023-02-25T16:50:02.192Z,9.97
2023-02-25T16:52:31.211Z,10.29
2023-02-25T16:54:59.642Z,10.38
2023-02-25T16:57:26.669Z,10.29
2023-02-25T17:00:20.165Z,10.41
2023-02-25T17:02:51.156Z,10.15
2023-02-25T17:05:24.171Z,10.24
2023-02-25T17:07:59.852Z,9.71
2023-02-25T17:10:31.577Z,10.08
2023-02-25T17:12:58.425Z,10.11
2023-02-25T17:15:30.008Z,10.11
2023-02-25T17:18:02.537Z,10.08
2023-02-25T17:20:29.321Z,10.07
2023-02-25T17:22:57.190Z,9.77
2023-02-25T17:25:27.952Z,9.84
2023-02-25T17:27:54.856Z,10.05
2023-02-25T17:30:42.440Z,10.07
2023-02-25T17:33:22.764Z,10.08
2023-02-25T17:35:52.314Z,9.90
2023-02-25T17:38:21.232Z,10.09
2023-02-25T17:40:48.152Z,9.85
2023-02-25T17:43:20.007Z,10.09
2023-02-25T17:45:50.260Z,10.10
2023-02-25T17:48:25.200Z,9.90
2023-02-25T17:50:53.561Z,9.89
2023-02-25T17:53:35.026Z,10.11
2023-02-25T17:56:09.953Z,10.04
2023-02-25T17:58:37.016Z,9.96
2023-02-25T18:01:05.901Z,9.85
2023-02-25T18:03:45.742Z,9.98
2023-02-25T18:06:31.539Z,10.12
2023-02-25T18:09:00.033Z,9.59
2023-02-25T18:11:33.875Z,9.88
2023-02-25T18:14:02.664Z,10.07
2023-02-25T18:16:40.668Z,10.03
2023-02-25T18:19:36.183Z,9.87
2023-02-25T18:22:03.782Z,10.00
2023-02-25T18:24:34.963Z,10.11
2023-02-25T18:27:07.928Z,10.08
2023-02-25T18:29:34.769Z,10.07
2023-02-25T18:32:01.766Z,9.87
2023-02-25T18:34:28.819Z,10.09
2023-02-25T18:36:55.623Z,10.05
2023-02-25T18:39:22.405Z,9.97
2023-02-25T18:41:49.322Z,10.17
2023-02-25T18:44:16.334Z,10.15
2023-02-25T18:46:43.093Z,10.04
2023-02-25T18:49:09.988Z,10.19
2023-02-25T18:51:36.743Z,10.11
2023-02-25T18:54:03.645Z,9.88
2023-02-25T18:56:30.549Z,10.13
2023-02-25T18:58:58.050Z,10.09
2023-02-25T19:01:28.916Z,9.96
2023-02-25T19:04:00.100Z,10.05
2023-02-25T19:06:32.164Z,9.72
2023-02-25T19:08:58.983Z,9.93
2023-02-25T19:11:29.143Z,10.01
2023-02-25T19:13:56.332Z,9.90
2023-02-25T19:16:23.734Z,9.96
2023-02-25T19:18:50.858Z,9.99
2023-02-25T19:21:19.253Z,9.89
2023-02-25T19:23:46.324Z,9.79
2023-02-25T19:26:13.288Z,9.79
2023-02-25T19:28:40.050Z,9.69
2023-02-25T19:31:07.269Z,9.95
2023-02-25T19:33:35.675Z,9.71
2023-02-25T19:36:03.656Z,9.89
2023-02-25T19:38:30.547Z,9.89
2023-02-25T19:41:02.453Z,9.26
2023-02-25T19:43:30.586Z,9.79
2023-02-25T19:45:57.438Z,9.81
2023-02-25T19:48:24.579Z,9.82
2023-02-25T19:50:51.392Z,9.83
2023-02-25T19:53:18.315Z,9.81
2023-02-25T19:55:45.209Z,9.82
2023-02-25T19:58:12.026Z,9.64
2023-02-25T20:00:40.216Z,9.64
2023-02-25T20:03:07.722Z,9.81
2023-02-25T20:05:35.004Z,9.77
2023-02-25T20:08:02.622Z,9.02
2023-02-25T20:10:29.521Z,9.65
2023-02-25T20:12:58.996Z,9.57
2023-02-25T20:15:25.936Z,9.58
2023-02-25T20:17:55.189Z,9.40
2023-02-25T20:20:23.024Z,9.45
2023-02-25T20:22:49.946Z,9.42
2023-02-25T20:25:16.805Z,9.28
2023-02-25T20:27:43.851Z,9.42
2023-02-25T20:30:15.110Z,9.31
2023-02-25T20:32:43.693Z,9.25
2023-02-25T20:35:16.052Z,9.55
2023-02-25T20:37:48.056Z,9.29
2023-02-25T20:40:14.987Z,9.27
2023-02-25T20:42:41.920Z,9.50
2023-02-25T20:45:13.652Z,8.96
2023-02-25T20:47:40.628Z,9.39
2023-02-25T20:50:08.414Z,9.46
2023-02-25T20:52:35.329Z,9.17
2023-02-25T20:55:02.197Z,9.49
2023-02-25T20:57:29.199Z,9.28
2023-02-25T20:59:55.978Z,9.46
2023-02-25T21:02:22.918Z,9.20
2023-02-25T21:04:50.581Z,9.31
2023-02-25T21:07:17.358Z,9.07
2023-02-25T21:09:44.204Z,9.15
2023-02-25T21:12:11.218Z,9.34
2023-02-25T21:14:38.016Z,9.31
2023-02-25T21:17:09.744Z,9.22
2023-02-25T21:19:38.888Z,9.05
2023-02-25T21:22:06.900Z,9.22
2023-02-25T21:24:34.784Z,9.13
2023-02-25T21:27:01.779Z,8.59
2023-02-25T21:29:28.571Z,9.09
2023-02-25T21:31:55.406Z,9.22
2023-02-25T21:34:22.360Z,9.20
2023-02-25T21:36:49.308Z,8.68
2023-02-25T21:39:16.129Z,9.05
2023-02-25T21:41:44.795Z,9.16
2023-02-25T21:44:12.437Z,9.14
2023-02-25T21:46:39.635Z,9.00
2023-02-25T21:49:06.581Z,9.02
2023-02-25T21:51:33.310Z,9.01
2023-02-25T21:54:00.940Z,9.18
2023-02-25T21:56:28.396Z,9.11
2023-02-25T21:58:56.036Z,8.93
2023-02-25T22:01:28.470Z,9.17
2023-02-25T22:03:55.385Z,9.20
2023-02-25T22:06:25.523Z,8.86
2023-02-25T22:08:52.926Z,9.02
2023-02-25T22:11:25.117Z,9.18
2023-02-25T22:13:52.900Z,9.05
2023-02-25T22:16:20.054Z,9.12
2023-02-25T22:18:46.891Z,8.90
2023-02-25T22:21:16.366Z,8.74
2023-02-25T22:23:43.703Z,8.78
2023-02-25T22:26:15.533Z,8.80
2023-02-25T22:28:42.908Z,8.92
2023-02-25T22:31:11.422Z,8.83
2023-02-25T22:33:38.519Z,8.34
2023-02-25T22:36:05.899Z,8.76
2023-02-25T22:38:37.560Z,8.97
2023-02-25T22:41:05.541Z,8.29
2023-02-25T22:43:33.068Z,8.88
2023-02-25T22:46:10.240Z,8.87
2023-02-25T22:48:38.661Z,8.81
2023-02-25T22:51:06.148Z,8.85
2023-02-25T22:53:33.032Z,8.77
2023-02-25T22:56:01.808Z,8.20
2023-02-25T22:58:28.871Z,8.38
2023-02-25T23:00:55.942Z,8.60
2023-02-25T23:03:22.964Z,8.37
2023-02-25T23:05:50.215Z,8.72
2023-02-25T23:08:17.362Z,8.70
2023-02-25T23:10:44.471Z,8.69
2023-02-25T23:13:11.665Z,8.09
2023-02-25T23:15:39.728Z,7.95
2023-02-25T23:18:08.785Z,8.65
2023-02-25T23:20:37.208Z,8.37
2023-02-25T23:23:05.177Z,8.61
2023-02-25T23:25:32.675Z,8.59
2023-02-25T23:28:00.692Z,8.35
2023-02-25T23:30:27.849Z,8.54
2023-02-25T23:32:54.840Z,8.26
2023-02-25T23:35:21.681Z,8.31
2023-02-25T23:37:48.707Z,8.30
2023-02-25T23:40:16.204Z,8.19
2023-02-25T23:42:43.382Z,8.27
2023-02-25T23:45:12.033Z,8.03
2023-02-25T23:47:41.428Z,8.02
2023-02-25T23:50:15.761Z,8.22
2023-02-25T23:52:43.766Z,8.01
2023-02-25T23:55:11.988Z,8.23
2023-02-25T23:57:38.887Z,8.27
